Aérodrome :
LOGIN :

S'inscrire | Disclaimer

   EN    FR    IT 

 










Légende :    VFR   VFR Marginal   IFR   IFR Intensif   IFR Très Intensif
Visi : 
Plafond : 
>= 8 km
>= 3000ft
5 à 8 km
1000 à 3000 ft
1500m à 5 km
500 à 1000 ft
800 à 1500m
200 à 500 ft
< 800m
< 200 ft
Symboles :   Orages  Brouillard  Fortes neiges  Fortes précipitations  Vent > 20 kt
SIGMETs :   Divers  Orages  Givrage  Turbulence  Onde Orograph.  Cendres Volcan.






- Altitude de l'aérodrome : 46 ft
- Code IATA : SNN


EINN - Shannon

DERNIER METAR :
  • 200430Z 27005KT 9999 FEW012 BKN038 15/14 Q1023 TEMPO 4000 BKN012

METARs EXPIRÉS :
  • 200400Z 27001KT 9999 FEW012 BKN038 14/14 Q1023 TEMPO 4000 BKN012
  • 200330Z 25004KT 9999 FEW010 BKN050 14/14 Q1022 TEMPO 4000 BKN012
  • 200300Z 24005KT 9999 FEW012 SCT036 BKN050 14/14 Q1022 TEMPO 4000 BKN012
  • 200230Z 22002KT 9999 FEW012 SCT030 BKN050 14/14 Q1022 TEMPO 4000 BKN012
  • 200200Z 23005KT 9999 FEW012 SCT026 BKN048 14/14 Q1022 TEMPO 4000 BKN012

TAF TAF EINN
Valide du 20 à 00h jusqu'au 21 à 00h UTC


192300Z 2000/2024 22005KT 9999 FEW007 BKN020
TEMPO 2000/2008 4000 -RADZ BR BKN007
PROB30
TEMPO 2000/2008 2500 BKN004
BECMG 2008/2010 29010KT
PROB40
TEMPO 2017/2019 BKN010
BECMG 2019/2021 25005KT
TEMPO 2019/2022 4000 -RADZ BKN007
PROB30
TEMPO 2022/2024 3000 BR



MET'MAP, la Météo Aéronautique d'un coup d'oeil ! - Copyright ORBIFLY Décembre 2007 - Disclaimer

ORBIFLY MET'MAP TEAM :

Programmation & Développement : Alexandra Zaïnal
Sur une idée originale de : Baudouin d'Aumeries
Assistance à la programmation : Marc-Olivier Méhu
Soutien technique & logistique : Manuel Goepfert

Contact : metmap@orbifly.com




SOURCES & CREDITS :

   NOAA